Time;durP1;ratioP1;P1;durP2;ratioP2;P2;SDS_P1;SDS_P2;PMS_P1;PMS_P2;Temp;Humidity;BMP_temperature;BMP_pressure;BME280_temperature;BME280_humidity;BME280_pressure;Samples;Min_cycle;Max_cycle;Signal;HPM_P1;HPM_P2
2023/05/16 05:01:18;;;;;;;46.38;28.60;;;12.60;99.90;;;;;;5924979;23;20023;31
2023/05/16 05:03:44;;;;;;;45.20;27.17;;;12.70;99.90;;;;;;4866907;29;20069;-69
2023/05/16 05:06:10;;;;;;;47.15;28.23;;;12.80;99.90;;;;;;4868431;29;20063;-69
2023/05/16 05:08:36;;;;;;;48.35;28.98;;;12.90;99.90;;;;;;4871121;29;20033;-69
2023/05/16 05:11:01;;;;;;;49.10;28.92;;;12.80;99.90;;;;;;4868417;29;20130;-70
2023/05/16 05:13:27;;;;;;;52.58;31.02;;;12.90;99.90;;;;;;4871364;29;20215;-67
2023/05/16 05:15:53;;;;;;;49.22;29.35;;;12.90;99.90;;;;;;4854064;29;20044;-67
2023/05/16 05:18:18;;;;;;;48.05;28.95;;;12.90;99.90;;;;;;4867144;29;20060;-68
2023/05/16 05:20:44;;;;;;;47.78;28.65;;;12.90;99.90;;;;;;4836800;29;20377;-68
2023/05/16 05:23:10;;;;;;;48.78;29.08;;;12.90;99.90;;;;;;4871143;29;20058;-68
2023/05/16 05:25:37;;;;;;;47.08;28.48;;;12.90;99.90;;;;;;4871035;29;20125;-69
2023/05/16 05:28:03;;;;;;;51.20;29.58;;;12.80;99.90;;;;;;4870267;29;20075;-67
2023/05/16 05:30:28;;;;;;;48.65;29.50;;;12.80;99.90;;;;;;4870688;29;20029;-67
2023/05/16 05:32:54;;;;;;;45.88;29.17;;;12.90;99.90;;;;;;4869929;29;20033;-68
2023/05/16 05:35:20;;;;;;;53.58;30.27;;;12.90;99.90;;;;;;4867624;29;20230;-69
2023/05/16 05:37:46;;;;;;;50.83;29.67;;;12.80;99.90;;;;;;4851702;29;20053;-67
2023/05/16 05:40:11;;;;;;;48.53;29.63;;;12.80;99.90;;;;;;4852508;29;20034;-67
2023/05/16 05:42:37;;;;;;;50.33;30.27;;;12.80;99.90;;;;;;4850911;29;20032;-66
2023/05/16 05:45:04;;;;;;;50.50;28.83;;;12.80;99.90;;;;;;4850723;29;20028;-66
2023/05/16 05:47:29;;;;;;;46.83;28.38;;;12.80;99.90;;;;;;4852137;29;20037;-67
2023/05/16 05:49:56;;;;;;;48.28;28.88;;;12.80;99.90;;;;;;4851581;29;20102;-68
2023/05/16 05:52:21;;;;;;;50.05;30.15;;;12.90;99.90;;;;;;4852162;29;20026;-68
2023/05/16 05:54:47;;;;;;;48.75;29.17;;;12.90;99.90;;;;;;4851409;29;20044;-68
2023/05/16 05:57:13;;;;;;;47.17;28.58;;;12.90;99.90;;;;;;4852402;29;20030;-68
2023/05/16 05:59:38;;;;;;;54.72;29.15;;;12.90;99.90;;;;;;4870055;29;20033;-67
2023/05/16 06:02:05;;;;;;;46.80;27.27;;;12.90;99.90;;;;;;4869174;29;20243;-68
2023/05/16 06:04:30;;;;;;;46.10;26.98;;;12.90;99.90;;;;;;4863156;29;20316;-67
2023/05/16 06:06:56;;;;;;;45.60;27.38;;;12.90;99.90;;;;;;4832807;29;20178;-69
2023/05/16 06:09:22;;;;;;;44.90;27.10;;;12.90;99.90;;;;;;4833546;29;20296;-68
2023/05/16 06:11:49;;;;;;;49.63;27.70;;;12.90;99.90;;;;;;4817022;29;20037;-68
2023/05/16 06:14:15;;;;;;;44.45;27.45;;;12.90;99.90;;;;;;4833557;29;20057;-68
2023/05/16 06:16:41;;;;;;;40.90;25.95;;;13.00;99.90;;;;;;4833552;29;20093;-69
2023/05/16 06:19:07;;;;;;;38.83;26.08;;;13.20;99.90;;;;;;4833022;29;20355;-69
2023/05/16 06:21:32;;;;;;;43.22;25.98;;;13.30;99.90;;;;;;4833333;29;20034;-69
2023/05/16 06:23:59;;;;;;;38.65;24.02;;;13.40;99.90;;;;;;4833130;29;20041;-69
2023/05/16 06:26:24;;;;;;;38.83;25.02;;;13.50;99.90;;;;;;4833645;29;20038;-70
2023/05/16 06:28:50;;;;;;;35.90;23.30;;;13.40;99.90;;;;;;4832858;29;20030;-69
2023/05/16 06:31:16;;;;;;;37.03;23.60;;;13.40;99.90;;;;;;4833639;29;20050;-68
2023/05/16 06:33:41;;;;;;;42.38;25.40;;;13.40;99.90;;;;;;4833249;29;20026;-69
2023/05/16 06:36:07;;;;;;;38.30;24.73;;;13.40;99.90;;;;;;4839969;29;20307;-68
2023/05/16 06:38:33;;;;;;;37.95;23.95;;;13.40;99.90;;;;;;4851178;29;20030;-68
2023/05/16 06:40:58;;;;;;;40.05;23.77;;;13.30;99.90;;;;;;4851385;29;20044;-67
2023/05/16 06:43:24;;;;;;;35.40;22.58;;;13.30;99.90;;;;;;4853995;29;20540;-68
2023/05/16 06:45:50;;;;;;;37.03;23.38;;;13.30;99.90;;;;;;4836195;29;20270;-68
2023/05/16 06:48:17;;;;;;;36.15;23.42;;;13.40;99.90;;;;;;4844550;29;20034;-68
2023/05/16 06:50:52;;;;;;;36.05;23.33;;;13.40;99.90;;;;;;4851371;29;20030;-68
2023/05/16 06:53:18;;;;;;;35.72;22.65;;;13.40;99.90;;;;;;4834478;29;20038;-67
2023/05/16 06:55:44;;;;;;;39.20;23.55;;;13.40;99.90;;;;;;4833004;29;20210;-68
2023/05/16 06:58:09;;;;;;;36.22;23.85;;;13.40;99.90;;;;;;4842141;29;20034;-67
2023/05/16 07:00:35;;;;;;;34.17;22.45;;;13.40;99.90;;;;;;4843267;29;20090;-67
2023/05/16 07:03:02;;;;;;;33.25;22.58;;;13.30;99.90;;;;;;4815881;29;20065;-67
2023/05/16 07:05:28;;;;;;;31.50;21.45;;;13.30;99.90;;;;;;4842478;29;20041;-67
2023/05/16 07:07:54;;;;;;;33.03;21.70;;;13.30;99.90;;;;;;4851002;29;20042;-67
2023/05/16 07:10:20;;;;;;;33.70;22.65;;;13.30;99.90;;;;;;4850973;29;20307;-67
2023/05/16 07:12:46;;;;;;;34.58;22.27;;;13.30;99.90;;;;;;4851254;29;20042;-67
2023/05/16 07:15:12;;;;;;;33.35;21.95;;;13.30;99.90;;;;;;4850715;29;20045;-67
2023/05/16 07:17:37;;;;;;;31.90;21.15;;;13.30;99.90;;;;;;4843452;29;20030;-67
2023/05/16 07:20:05;;;;;;;30.02;19.77;;;13.40;99.90;;;;;;4835338;29;20040;-67
2023/05/16 07:22:31;;;;;;;31.58;20.20;;;13.40;99.90;;;;;;4835916;29;20109;-66
2023/05/16 07:24:59;;;;;;;29.35;19.67;;;13.30;99.90;;;;;;4835894;29;20037;-70
2023/05/16 07:27:26;;;;;;;29.05;18.48;;;13.40;99.90;;;;;;4832576;29;20061;-72
2023/05/16 07:29:51;;;;;;;26.00;17.55;;;13.40;99.90;;;;;;4854268;29;20048;-71
2023/05/16 07:32:17;;;;;;;25.75;16.90;;;13.40;99.90;;;;;;4854928;29;20033;-73
2023/05/16 07:34:43;;;;;;;22.85;15.82;;;13.40;99.90;;;;;;4854573;29;20038;-73
2023/05/16 07:37:11;;;;;;;21.83;14.80;;;13.40;99.90;;;;;;4869660;29;20037;-72
2023/05/16 07:39:38;;;;;;;;;;;13.30;99.90;;;;;;4846061;29;20312;-73
2023/05/16 07:42:03;;;;;;;16.08;11.40;;;13.40;99.90;;;;;;4853687;29;20098;-72
2023/05/16 07:44:30;;;;;;;16.73;11.27;;;13.60;99.90;;;;;;4854437;29;20034;-73
2023/05/16 07:46:55;;;;;;;13.85;10.13;;;13.70;99.90;;;;;;4853867;29;20041;-72
2023/05/16 07:49:21;;;;;;;15.85;10.02;;;13.90;99.90;;;;;;4854179;29;20361;-72
2023/05/16 07:51:47;;;;;;;14.07;9.82;;;14.00;99.90;;;;;;4846237;29;20026;-73
2023/05/16 07:54:13;;;;;;;12.70;9.65;;;14.00;99.90;;;;;;4835079;29;20105;-74
2023/05/16 07:56:38;;;;;;;13.27;9.90;;;14.10;99.90;;;;;;4835848;29;20125;-73
2023/05/16 07:59:04;;;;;;;12.07;9.05;;;14.20;99.90;;;;;;4835151;29;20041;-73
2023/05/16 08:01:30;;;;;;;13.05;9.82;;;14.30;99.90;;;;;;4853766;29;20049;-74
2023/05/16 08:03:56;;;;;;;12.57;9.07;;;14.50;99.90;;;;;;4853271;29;20097;-74
2023/05/16 08:06:21;;;;;;;12.48;9.05;;;14.70;99.90;;;;;;4853808;29;20069;-74
2023/05/16 08:08:47;;;;;;;12.02;9.38;;;14.60;99.90;;;;;;4837455;29;20042;-72
2023/05/16 08:11:13;;;;;;;11.07;8.65;;;14.60;99.90;;;;;;4853572;29;20042;-71
2023/05/16 08:13:39;;;;;;;11.10;8.60;;;14.60;99.90;;;;;;4853610;29;20044;-69
2023/05/16 08:16:05;;;;;;;11.52;8.52;;;14.50;99.90;;;;;;4853164;29;20097;-69
2023/05/16 08:18:31;;;;;;;10.07;7.82;;;14.50;99.90;;;;;;4853465;29;20339;-69
2023/05/16 08:20:56;;;;;;;11.50;8.02;;;14.50;99.90;;;;;;4853438;29;20029;-68
2023/05/16 08:23:22;;;;;;;11.70;8.45;;;14.40;99.90;;;;;;4853425;29;20044;-69
2023/05/16 08:25:48;;;;;;;10.27;7.60;;;14.40;99.90;;;;;;4853620;29;20096;-69
2023/05/16 08:28:14;;;;;;;11.82;8.52;;;14.40;99.90;;;;;;4853201;29;20034;-70
2023/05/16 08:30:40;;;;;;;11.85;8.45;;;14.50;99.90;;;;;;4853145;29;20296;-69
2023/05/16 08:33:05;;;;;;;10.63;8.10;;;14.40;99.90;;;;;;4853096;29;20034;-71
2023/05/16 08:35:32;;;;;;;11.27;8.52;;;14.20;99.90;;;;;;4839946;29;20041;-69
2023/05/16 08:37:57;;;;;;;12.20;8.93;;;14.00;99.90;;;;;;4871604;29;20036;-70
2023/05/16 08:40:27;;;;;;;13.65;9.77;;;14.00;99.90;;;;;;4837896;29;20030;-70
2023/05/16 08:42:53;;;;;;;14.73;10.32;;;13.90;99.90;;;;;;4835238;29;20050;-71
2023/05/16 08:45:20;;;;;;;14.82;10.38;;;13.90;99.90;;;;;;4834712;29;20038;-71
2023/05/16 08:47:48;;;;;;;14.70;10.93;;;13.90;99.90;;;;;;4828879;29;20082;-70
2023/05/16 08:50:14;;;;;;;;;;;13.80;99.90;;;;;;4852863;29;20034;-70
2023/05/16 08:52:42;;;;;;;18.00;10.95;;;13.80;99.90;;;;;;4838769;29;19908;-69
2023/05/16 08:55:10;;;;;;;13.27;10.37;;;13.90;99.90;;;;;;4834427;29;20097;-70
2023/05/16 08:57:36;;;;;;;15.50;11.07;;;14.00;99.90;;;;;;4843960;29;20022;-70
2023/05/16 09:00:10;;;;;;;15.70;11.63;;;14.00;99.90;;;;;;4837282;29;20038;-71
2023/05/16 09:02:40;;;;;;;19.17;12.80;;;13.90;99.90;;;;;;4834483;29;20062;-69
2023/05/16 09:05:10;;;;;;;18.42;12.38;;;13.80;99.90;;;;;;4833992;29;20060;-69
2023/05/16 09:07:36;;;;;;;17.42;12.50;;;13.60;99.90;;;;;;4834369;29;20038;-69
2023/05/16 09:10:02;;;;;;;20.38;13.45;;;13.60;99.90;;;;;;4834160;29;20026;-69
2023/05/16 09:12:27;;;;;;;21.70;13.98;;;13.50;99.90;;;;;;4834718;29;20380;-69
2023/05/16 09:14:54;;;;;;;17.42;13.32;;;13.40;99.90;;;;;;4817987;29;20224;-69
2023/05/16 09:17:20;;;;;;;21.58;12.70;;;13.50;99.90;;;;;;4817445;29;20053;-68
2023/05/16 09:19:49;;;;;;;21.10;14.20;;;13.50;99.90;;;;;;4834405;29;20102;-69
2023/05/16 09:22:15;;;;;;;20.70;13.68;;;13.60;99.90;;;;;;4817571;29;20030;-69
2023/05/16 09:24:42;;;;;;;19.30;13.65;;;13.70;99.90;;;;;;4834078;29;20048;-69
2023/05/16 09:27:14;;;;;;;18.63;13.60;;;13.80;99.90;;;;;;4837962;29;20038;-69
2023/05/16 09:29:44;;;;;;;22.27;13.70;;;13.80;99.90;;;;;;4844734;29;20113;-69
2023/05/16 09:32:14;;;;;;;19.83;14.02;;;13.80;99.90;;;;;;4836521;29;20050;-70
2023/05/16 09:34:47;;;;;;;19.95;14.02;;;13.80;99.90;;;;;;4833903;29;20320;-70
2023/05/16 09:37:12;;;;;;;20.30;13.80;;;13.80;99.90;;;;;;4865658;29;20341;-70
2023/05/16 09:39:46;;;;;;;18.95;13.35;;;13.80;99.90;;;;;;4848761;29;20057;-70
2023/05/16 09:42:13;;;;;;;21.48;14.90;;;13.90;99.90;;;;;;4832800;29;20034;-69
2023/05/16 09:44:39;;;;;;;21.77;14.85;;;13.90;99.90;;;;;;4842307;29;20093;-70
2023/05/16 09:47:05;;;;;;;21.00;14.98;;;14.10;99.90;;;;;;4834360;29;20240;-70
2023/05/16 09:49:31;;;;;;;20.98;14.63;;;14.50;99.90;;;;;;4834099;29;20053;-71
2023/05/16 09:52:01;;;;;;;21.48;14.52;;;15.10;99.90;;;;;;4842721;29;20026;-72
2023/05/16 09:54:31;;;;;;;21.45;14.25;;;15.80;99.90;;;;;;4852271;29;20105;-70
2023/05/16 09:56:57;;;;;;;21.40;14.70;;;16.50;99.90;;;;;;4852002;29;20026;-71
2023/05/16 09:59:23;;;;;;;18.67;13.57;;;17.00;99.90;;;;;;4841822;29;20033;-71
2023/05/16 10:01:51;;;;;;;17.17;12.70;;;17.00;99.90;;;;;;4822189;29;20228;-71
2023/05/16 10:04:17;;;;;;;18.23;13.55;;;16.80;99.90;;;;;;4833047;29;20038;-71
2023/05/16 10:06:45;;;;;;;20.27;14.20;;;16.50;99.90;;;;;;4833646;29;20165;-72
2023/05/16 10:09:11;;;;;;;20.73;13.97;;;16.20;99.90;;;;;;4816826;29;20314;-70
2023/05/16 10:11:42;;;;;;;19.65;13.82;;;15.80;99.90;;;;;;4833799;29;20058;-69
2023/05/16 10:14:12;;;;;;;22.92;14.50;;;15.70;99.90;;;;;;4833229;29;20046;-69
2023/05/16 10:16:42;;;;;;;20.02;14.63;;;15.50;99.90;;;;;;4833183;29;20089;-70
2023/05/16 10:19:08;;;;;;;21.83;14.60;;;15.40;99.90;;;;;;4816538;29;20287;-71
2023/05/16 10:21:36;;;;;;;20.75;14.38;;;15.60;99.90;;;;;;4833362;29;20046;-71
2023/05/16 10:24:05;;;;;;;24.13;15.38;;;15.80;99.90;;;;;;4833134;29;20050;-71
2023/05/16 10:26:32;;;;;;;21.58;14.65;;;16.00;99.90;;;;;;4833485;29;20042;-69
2023/05/16 10:28:58;;;;;;;21.52;13.88;;;16.20;99.90;;;;;;4833354;29;20208;-69
2023/05/16 10:31:24;;;;;;;18.60;14.30;;;16.50;99.90;;;;;;4832803;29;20041;-70
2023/05/16 10:33:50;;;;;;;19.40;13.40;;;16.70;99.90;;;;;;4833558;29;20060;-72
2023/05/16 10:36:17;;;;;;;18.08;13.30;;;17.00;99.90;;;;;;4852833;29;20097;-70
2023/05/16 10:38:45;;;;;;;20.73;13.73;;;17.30;99.90;;;;;;4862147;29;20038;-70
2023/05/16 10:41:12;;;;;;;19.73;14.20;;;17.60;99.90;;;;;;4833045;29;20308;-71
2023/05/16 10:43:37;;;;;;;17.45;12.80;;;17.60;99.90;;;;;;4833474;29;20034;-70
2023/05/16 10:46:06;;;;;;;18.20;12.63;;;17.60;99.90;;;;;;4833129;29;20069;-70
2023/05/16 10:48:37;;;;;;;20.17;14.07;;;17.30;99.90;;;;;;4833353;29;20304;-70
2023/05/16 10:51:24;;;;;;;19.77;14.45;;;16.90;99.90;;;;;;4834999;29;20073;-70
2023/05/16 10:53:52;;;;;;;20.13;14.47;;;16.40;99.90;;;;;;4842621;29;20045;-69
2023/05/16 10:56:26;;;;;;;21.77;15.15;;;16.00;99.90;;;;;;4835389;29;20253;-69
2023/05/16 10:58:54;;;;;;;20.27;13.90;;;15.70;99.90;;;;;;4849211;29;20037;-70
2023/05/16 11:01:23;;;;;;;21.95;15.57;;;15.60;99.90;;;;;;4836013;29;20091;-70
2023/05/16 11:04:03;;;;;;;22.77;15.07;;;15.40;99.90;;;;;;4836599;29;20053;-70
2023/05/16 11:06:51;;;;;;;21.58;14.48;;;15.20;99.90;;;;;;4836432;29;20368;-70
2023/05/16 11:09:21;;;;;;;21.20;13.15;;;15.00;99.90;;;;;;4836066;29;20042;-70
2023/05/16 11:11:58;;;;;;;22.48;14.60;;;14.70;99.90;;;;;;4836451;29;20034;-75
2023/05/16 11:14:33;;;;;;;41.03;14.93;;;14.60;99.90;;;;;;4835962;29;20050;-70
2023/05/16 11:17:12;;;;;;;21.15;12.65;;;14.50;99.90;;;;;;4836310;29;20066;-69
2023/05/16 11:19:44;;;;;;;19.08;12.43;;;14.30;99.90;;;;;;4820164;29;20067;-68
2023/05/16 11:22:19;;;;;;;17.05;11.35;;;14.10;99.90;;;;;;4842108;29;20098;-70
2023/05/16 11:24:51;;;;;;;20.20;12.70;;;14.00;99.90;;;;;;4854505;29;20053;-69
2023/05/16 11:27:25;;;;;;;16.48;11.23;;;13.90;99.90;;;;;;4853902;29;20098;-70
2023/05/16 11:29:52;;;;;;;15.45;10.10;;;13.80;99.90;;;;;;4854421;29;20042;-69
2023/05/16 11:32:21;;;;;;;16.48;10.00;;;13.80;99.90;;;;;;4853935;29;20033;-69
2023/05/16 11:34:49;;;;;;;17.25;10.15;;;13.60;99.90;;;;;;4854372;29;20048;-68
2023/05/16 11:37:15;;;;;;;17.20;9.88;;;13.50;99.90;;;;;;4869718;29;20049;-68
2023/05/16 11:39:41;;;;;;;15.88;9.90;;;13.30;99.90;;;;;;4849910;29;20094;-69
2023/05/16 11:42:08;;;;;;;14.80;8.70;;;13.30;99.90;;;;;;4835030;29;20051;-69
2023/05/16 11:44:34;;;;;;;14.15;8.70;;;13.20;99.90;;;;;;4836015;29;20105;-68
2023/05/16 11:47:01;;;;;;;15.15;9.00;;;13.10;99.90;;;;;;4835834;29;20050;-68
2023/05/16 11:49:27;;;;;;;12.50;8.35;;;13.00;99.90;;;;;;4835122;29;20063;-75
2023/05/16 11:51:53;;;;;;;12.55;8.30;;;13.10;99.90;;;;;;4844326;29;20025;-68
2023/05/16 11:54:20;;;;;;;15.77;9.10;;;13.00;99.90;;;;;;4837361;29;20042;-71
2023/05/16 11:56:46;;;;;;;12.98;8.48;;;13.00;99.90;;;;;;4854175;29;20022;-71
2023/05/16 11:59:12;;;;;;;12.65;8.50;;;13.10;99.90;;;;;;4844718;29;20038;-68
2023/05/16 12:01:38;;;;;;;13.15;8.02;;;13.20;99.90;;;;;;4834992;29;20213;-68
2023/05/16 12:04:09;;;;;;;12.07;8.27;;;13.30;99.90;;;;;;4835324;29;20042;-67
2023/05/16 12:06:34;;;;;;;11.07;7.18;;;13.20;99.90;;;;;;4834820;29;20047;-68
2023/05/16 12:09:09;;;;;;;11.70;7.93;;;13.30;99.90;;;;;;4835470;29;20045;-68
2023/05/16 12:11:41;;;;;;;10.52;7.43;;;13.30;99.90;;;;;;4835486;29;20061;-68
2023/05/16 12:14:09;;;;;;;12.85;7.47;;;13.30;99.90;;;;;;4834849;29;20038;-68
2023/05/16 12:16:36;;;;;;;10.40;7.67;;;13.30;99.90;;;;;;4836927;29;20026;-67
2023/05/16 12:19:05;;;;;;;15.63;7.20;;;13.30;99.90;;;;;;4853913;29;20030;-67
2023/05/16 12:21:32;;;;;;;10.77;7.57;;;13.30;99.90;;;;;;4842648;29;20045;-69
2023/05/16 12:23:58;;;;;;;10.38;7.20;;;13.20;99.90;;;;;;4853699;29;20359;-68
2023/05/16 12:26:29;;;;;;;11.68;6.78;;;13.20;99.90;;;;;;4840784;29;20154;-68
2023/05/16 12:29:04;;;;;;;9.07;6.45;;;13.30;99.90;;;;;;4834961;29;20042;-68
2023/05/16 12:31:34;;;;;;;10.02;5.85;;;13.40;99.90;;;;;;4853573;29;20374;-68
2023/05/16 12:34:00;;;;;;;8.95;5.32;;;13.50;99.90;;;;;;4850294;29;20102;-67
2023/05/16 12:36:31;;;;;;;7.85;5.00;;;13.70;99.90;;;;;;4842774;29;20261;-67
2023/05/16 12:39:01;;;;;;;7.43;4.70;;;13.70;99.90;;;;;;4835080;29;20039;-68
2023/05/16 12:41:28;;;;;;;7.47;4.60;;;13.70;99.90;;;;;;4834058;29;20056;-68
2023/05/16 12:44:06;;;;;;;8.43;4.53;;;13.70;99.90;;;;;;4835026;29;20030;-67
2023/05/16 12:46:31;;;;;;;6.03;4.30;;;13.80;99.90;;;;;;4834336;29;20050;-68
2023/05/16 12:49:03;;;;;;;6.40;3.75;;;13.80;99.90;;;;;;4834672;29;20037;-68
2023/05/16 12:51:31;;;;;;;5.60;3.88;;;13.80;99.90;;;;;;4836732;29;20038;-67
2023/05/16 12:54:05;;;;;;;6.70;4.30;;;13.70;99.90;;;;;;4834563;29;20048;-66
2023/05/16 12:56:40;;;;;;;6.47;4.00;;;13.70;99.90;;;;;;4834348;29;20042;-72
2023/05/16 12:59:07;;;;;;;6.28;3.72;;;13.80;99.90;;;;;;4842322;29;20328;-71
2023/05/16 13:01:34;;;;;;;6.00;3.53;;;13.90;99.90;;;;;;4817635;29;20046;-70
2023/05/16 13:04:00;;;;;;;5.50;3.80;;;13.90;99.90;;;;;;4834803;29;20085;-69
2023/05/16 13:06:27;;;;;;;5.75;3.22;;;13.90;99.90;;;;;;4833594;29;20320;-68
2023/05/16 13:08:53;;;;;;;6.60;3.00;;;13.90;99.90;;;;;;4834569;29;20053;-69
2023/05/16 13:11:19;;;;;;;5.00;2.97;;;13.80;99.90;;;;;;4833775;29;20049;-67
2023/05/16 13:13:45;;;;;;;7.63;3.53;;;13.70;99.90;;;;;;4834591;29;20086;-67
2023/05/16 13:16:11;;;;;;;4.25;2.67;;;13.60;99.90;;;;;;4846325;29;20315;-72
2023/05/16 13:18:36;;;;;;;4.82;2.55;;;13.50;99.90;;;;;;4859653;29;20220;-69
2023/05/16 13:21:03;;;;;;;4.25;2.65;;;13.50;99.90;;;;;;4834356;29;20028;-68
2023/05/16 13:23:29;;;;;;;3.97;2.90;;;13.40;99.90;;;;;;4846858;29;20029;-69
2023/05/16 13:25:55;;;;;;;2.90;2.28;;;13.30;99.90;;;;;;4853116;29;20080;-69
2023/05/16 13:28:21;;;;;;;4.35;2.55;;;13.30;99.90;;;;;;4851977;29;20065;-68
2023/05/16 13:30:47;;;;;;;3.92;2.42;;;13.30;99.90;;;;;;4852295;29;20057;-71
2023/05/16 13:33:13;;;;;;;4.15;1.88;;;13.20;99.90;;;;;;4835693;29;20029;-69
2023/05/16 13:35:38;;;;;;;4.45;2.10;;;13.20;99.90;;;;;;4848812;29;20110;-68
2023/05/16 13:38:04;;;;;;;3.45;2.10;;;13.20;99.90;;;;;;4834082;29;20312;-69
2023/05/16 13:40:30;;;;;;;4.18;2.10;;;13.20;99.90;;;;;;4833931;29;20034;-70
2023/05/16 13:42:56;;;;;;;4.55;2.17;;;13.30;99.90;;;;;;4833938;29;20054;-69
2023/05/16 13:45:22;;;;;;;4.82;2.58;;;13.40;99.90;;;;;;4833233;29;20049;-69
2023/05/16 13:47:48;;;;;;;4.68;2.20;;;13.40;99.90;;;;;;4833988;29;20070;-70
2023/05/16 13:50:13;;;;;;;4.20;2.28;;;13.50;99.90;;;;;;4817341;29;20038;-69
2023/05/16 13:52:39;;;;;;;6.82;2.08;;;13.50;99.90;;;;;;4848094;29;20030;-69
2023/05/16 13:55:06;;;;;;;3.20;1.85;;;13.60;99.90;;;;;;4852279;29;20040;-69
2023/05/16 13:57:33;;;;;;;3.72;2.03;;;13.60;99.90;;;;;;4835274;29;20042;-68
2023/05/16 13:59:58;;;;;;;4.75;2.22;;;13.50;99.90;;;;;;4851920;29;20038;-69
2023/05/16 14:02:25;;;;;;;5.78;2.30;;;13.50;99.90;;;;;;4851124;29;20050;-68
2023/05/16 14:04:51;;;;;;;4.28;2.03;;;13.40;99.90;;;;;;4851683;29;20319;-68
2023/05/16 14:07:17;;;;;;;4.53;2.38;;;13.40;99.90;;;;;;4851161;29;20379;-68
2023/05/16 14:09:44;;;;;;;2.50;1.70;;;13.40;99.90;;;;;;4851568;29;20026;-69
2023/05/16 14:12:10;;;;;;;4.20;1.85;;;13.30;99.90;;;;;;4851814;29;20033;-68
2023/05/16 14:14:36;;;;;;;4.22;2.28;;;13.30;99.90;;;;;;4850781;29;20044;-68
2023/05/16 14:17:02;;;;;;;3.80;2.53;;;13.30;99.90;;;;;;4863711;29;20042;-68
2023/05/16 14:19:29;;;;;;;3.97;1.88;;;13.30;99.90;;;;;;4833231;29;20035;-67
2023/05/16 14:21:55;;;;;;;4.25;2.17;;;13.40;99.90;;;;;;4833523;29;20038;-67
2023/05/16 14:24:21;;;;;;;3.58;2.13;;;13.50;99.90;;;;;;4832843;29;20417;-67
2023/05/16 14:26:47;;;;;;;3.67;2.05;;;13.50;99.90;;;;;;4832222;29;20042;-68
2023/05/16 14:29:13;;;;;;;5.85;2.20;;;13.50;99.90;;;;;;4815955;29;20038;-67
2023/05/16 14:31:39;;;;;;;3.38;1.80;;;13.60;99.90;;;;;;4833333;29;20034;-67
2023/05/16 14:34:05;;;;;;;5.55;2.50;;;13.60;99.90;;;;;;4833606;29;20264;-68
2023/05/16 14:36:31;;;;;;;3.25;2.20;;;13.50;99.90;;;;;;4842888;29;20129;-67
2023/05/16 14:38:57;;;;;;;3.47;2.13;;;13.50;99.90;;;;;;4850935;29;20033;-67
2023/05/16 14:41:23;;;;;;;4.90;2.05;;;13.50;99.90;;;;;;4850693;29;20073;-67
2023/05/16 14:43:49;;;;;;;3.58;2.17;;;13.50;99.90;;;;;;4851255;29;20045;-68
2023/05/16 14:46:15;;;;;;;3.85;1.90;;;13.50;99.90;;;;;;4851285;29;20071;-68
2023/05/16 14:48:41;;;;;;;3.28;1.65;;;13.60;99.90;;;;;;4835102;29;20048;-67
2023/05/16 14:51:07;;;;;;;3.72;1.90;;;13.70;99.90;;;;;;4848431;29;20026;-67
2023/05/16 14:53:33;;;;;;;3.67;1.75;;;13.90;99.90;;;;;;4832434;29;20042;-68
2023/05/16 14:56:01;;;;;;;4.78;1.70;;;14.00;99.90;;;;;;4850765;29;20209;-67
2023/05/16 14:58:27;;;;;;;3.75;1.75;;;14.10;99.90;;;;;;4850831;29;20026;-68
2023/05/16 15:00:52;;;;;;;4.60;1.88;;;14.20;99.90;;;;;;4851536;29;20038;-67
2023/05/16 15:03:18;;;;;;;2.58;1.30;;;14.20;99.90;;;;;;4834553;29;20239;-67
2023/05/16 15:05:44;;;;;;;2.63;1.50;;;14.30;99.90;;;;;;4850889;29;20057;-69
2023/05/16 15:08:10;;;;;;;2.70;1.20;;;14.30;99.90;;;;;;4851165;29;20227;-68
2023/05/16 15:10:36;;;;;;;3.38;1.20;;;14.30;99.90;;;;;;4850743;29;20030;-69
2023/05/16 15:13:02;;;;;;;3.17;0.98;;;14.40;99.90;;;;;;4851220;29;20353;-69
2023/05/16 15:15:27;;;;;;;4.90;1.20;;;14.50;99.90;;;;;;4851949;29;20307;-70
2023/05/16 15:17:53;;;;;;;2.58;1.00;;;14.70;99.90;;;;;;4857809;29;20078;-70
2023/05/16 15:20:20;;;;;;;2.20;0.90;;;14.70;99.90;;;;;;4832392;29;20041;-71
2023/05/16 15:22:46;;;;;;;2.72;0.95;;;14.80;99.90;;;;;;4832916;29;20206;-69
2023/05/16 15:25:12;;;;;;;5.53;1.20;;;14.80;99.90;;;;;;4832731;29;20057;-69
2023/05/16 15:27:38;;;;;;;2.75;0.80;;;14.90;99.60;;;;;;4830453;29;20236;-70
2023/05/16 15:30:04;;;;;;;4.05;1.02;;;14.80;99.70;;;;;;4832827;29;20045;-70
2023/05/16 15:32:30;;;;;;;3.30;1.35;;;14.80;99.40;;;;;;4832505;29;20065;-70
2023/05/16 15:34:56;;;;;;;3.70;0.90;;;14.70;99.40;;;;;;4832852;29;20038;-69
2023/05/16 15:37:22;;;;;;;2.78;0.90;;;14.70;99.50;;;;;;4849029;29;20030;-68
2023/05/16 15:39:47;;;;;;;3.03;0.98;;;14.80;99.70;;;;;;4851140;29;20069;-68
2023/05/16 15:42:13;;;;;;;6.22;0.90;;;15.00;99.40;;;;;;4853882;29;20052;-69
2023/05/16 15:44:39;;;;;;;4.40;0.90;;;15.30;98.80;;;;;;4854450;29;20040;-71
2023/05/16 15:47:06;;;;;;;2.88;1.00;;;15.60;98.30;;;;;;4854190;29;20220;-70
2023/05/16 15:49:31;;;;;;;4.60;0.90;;;15.90;97.60;;;;;;4853953;29;20659;-69
2023/05/16 15:51:57;;;;;;;3.92;1.23;;;16.20;97.00;;;;;;4845232;29;20057;-70
2023/05/16 15:54:23;;;;;;;5.75;1.25;;;16.30;97.00;;;;;;4840859;29;20038;-70
2023/05/16 15:56:49;;;;;;;3.10;1.00;;;16.10;96.70;;;;;;4854114;29;20252;-68
2023/05/16 15:59:16;;;;;;;3.47;1.20;;;15.80;97.00;;;;;;4853314;29;20045;-67
2023/05/16 16:01:41;;;;;;;6.57;1.33;;;15.50;97.50;;;;;;4854041;29;20217;-66
2023/05/16 16:04:07;;;;;;;3.63;1.20;;;15.20;97.60;;;;;;4853839;29;20045;-68
2023/05/16 16:06:33;;;;;;;4.13;1.38;;;14.90;98.10;;;;;;4848361;29;20330;-67
2023/05/16 16:08:58;;;;;;;4.07;1.20;;;14.60;98.50;;;;;;4843690;29;20031;-67
2023/05/16 16:11:26;;;;;;;6.90;1.40;;;14.50;99.10;;;;;;4845981;29;20339;-68
2023/05/16 16:13:51;;;;;;;4.53;1.50;;;14.30;99.10;;;;;;4854098;29;20038;-68
2023/05/16 16:16:17;;;;;;;3.50;1.20;;;14.30;98.80;;;;;;4837415;29;20040;-67
2023/05/16 16:18:44;;;;;;;5.40;1.20;;;14.10;98.70;;;;;;4835319;29;20031;-68
2023/05/16 16:21:10;;;;;;;5.38;1.17;;;14.10;98.60;;;;;;4835555;29;20069;-67
2023/05/16 16:23:36;;;;;;;4.53;1.20;;;14.10;98.30;;;;;;4841538;29;20046;-67
2023/05/16 16:26:04;;;;;;;4.97;1.48;;;14.00;98.40;;;;;;4853628;29;20140;-67
2023/05/16 16:28:30;;;;;;;5.60;1.75;;;13.90;98.20;;;;;;4853115;29;20380;-67
2023/05/16 16:30:56;;;;;;;4.15;1.20;;;13.80;98.20;;;;;;4853620;29;20037;-67
2023/05/16 16:33:21;;;;;;;6.05;1.38;;;13.80;98.50;;;;;;4853129;29;20030;-68
2023/05/16 16:35:47;;;;;;;5.97;1.40;;;13.90;98.10;;;;;;4848695;29;20034;-67
2023/05/16 16:38:13;;;;;;;4.82;1.13;;;14.00;97.80;;;;;;4834712;29;20071;-68
2023/05/16 16:40:38;;;;;;;4.95;1.45;;;14.10;97.60;;;;;;4841358;29;20105;-67
2023/05/16 16:43:05;;;;;;;6.03;1.25;;;14.10;97.30;;;;;;4853399;29;20327;-67
2023/05/16 16:45:31;;;;;;;3.70;1.45;;;14.10;97.20;;;;;;4852577;29;20033;-69
2023/05/16 16:47:57;;;;;;;4.97;1.42;;;14.30;97.00;;;;;;4852853;29;20037;-66
2023/05/16 16:50:23;;;;;;;5.50;1.40;;;14.30;96.50;;;;;;4852975;29;20040;-67
2023/05/16 16:52:49;;;;;;;5.35;1.60;;;14.30;96.70;;;;;;4862179;29;20038;-68
2023/05/16 16:55:15;;;;;;;4.68;1.30;;;14.40;96.90;;;;;;4846685;29;20040;-69
2023/05/16 16:57:41;;;;;;;5.28;1.17;;;14.60;96.60;;;;;;4852720;29;20316;-69
2023/05/16 17:00:07;;;;;;;5.22;1.20;;;14.60;96.10;;;;;;4853093;29;20133;-70
2023/05/16 17:02:34;;;;;;;6.45;1.30;;;14.60;95.90;;;;;;4852229;29;20046;-69
2023/05/16 17:04:59;;;;;;;5.15;1.35;;;14.60;95.80;;;;;;4853090;29;20074;-68
2023/05/16 17:07:25;;;;;;;5.00;1.35;;;14.50;95.50;;;;;;4852299;29;20045;-68
2023/05/16 17:09:53;;;;;;;5.45;1.38;;;14.40;95.20;;;;;;4852697;29;20084;-69
2023/05/16 17:12:20;;;;;;;6.10;1.60;;;14.40;95.50;;;;;;4840127;29;20031;-70
2023/05/16 17:14:48;;;;;;;5.65;1.60;;;14.30;95.50;;;;;;4834823;29;20046;-69
2023/05/16 17:17:15;;;;;;;6.47;1.50;;;14.20;95.50;;;;;;4834131;29;20098;-71
2023/05/16 17:19:41;;;;;;;5.18;1.30;;;14.20;95.50;;;;;;4834886;29;20036;-70
2023/05/16 17:22:07;;;;;;;5.43;1.15;;;14.10;95.40;;;;;;4834662;29;20046;-69
2023/05/16 17:24:33;;;;;;;4.65;1.00;;;14.10;95.70;;;;;;4833654;29;20225;-71
2023/05/16 17:27:00;;;;;;;4.88;0.93;;;14.20;95.50;;;;;;4834582;29;20045;-68
2023/05/16 17:29:26;;;;;;;7.30;1.05;;;14.20;95.10;;;;;;4834071;29;20045;-68
2023/05/16 17:31:52;;;;;;;4.72;1.17;;;14.10;94.70;;;;;;4834368;29;20026;-68
2023/05/16 17:34:18;;;;;;;4.68;1.33;;;14.20;94.90;;;;;;4833950;29;20114;-68
2023/05/16 17:36:44;;;;;;;4.30;1.30;;;14.20;95.10;;;;;;4858184;29;20090;-67